Thunder radar more information blitzortung!


Rain radar more information rain snow radar


altri nostri siti meteo:

PomeziameteoStazione ufficiale di Pomezia

MeteopomeziaSito sulle condizioni meteo



Nessuna attenzione particolare richiesta.    Non ci sono allerte meteo

Report METAR

   
LIMP - Parma
Dati ricevuti: 03-10-2022 22:50
DATI Obsoleti
Sereno  
Sereno  
   Vento: Variabile 3.7 km/h
Vento: Variabile 3.7 km/h
Temperatura: 16°C
P.to Rugiada: 15°C
Umidita: 94%
Barometro: 1019 hPa
Visibilita: oltre 10 km
dettagli cloud: Sereno
LIMP 032050Z VRB02KT CAVOK 16/15 Q1019
LIPE - Bologna
Dati ricevuti: 04-10-2022 01:20
Sereno  
Sereno  
   Vento: SE 5.6 km/h
Vento: SE 5.6 km/h
Temperatura: 15°C
P.to Rugiada: 14°C
Umidita: 94%
Barometro: 1020 hPa
Visibilita: oltre 10 km
dettagli cloud: Sereno
LIPE 032320Z 11003KT CAVOK 15/14 Q1020
LIPO - Brescia/Montichi
Dati ricevuti: 04-10-2022 01:20
Parzialmente nuvoloso  
Parzialmente nuvoloso  
   Vento: NE 11.1 km/h
Vento: NE 11.1 km/h
Temperatura: 17°C
P.to Rugiada: 15°C
Umidita: 88%
Barometro: 1020 hPa
Nuvole: Parzialmente nuvoloso
Visibilita: oltre 10 km
dettagli cloud: Parzialmente nuvoloso 3800 ft
LIPO 032320Z AUTO 04006KT 9999 SCT038/// 17/15 Q1020
LIPF - Ferrara
Dati ricevuti: 03-10-2022 19:55
DATI Obsoleti
Sereno  
Sereno  
   Vento: W 5.6 km/h
Vento: W 5.6 km/h
Temperatura: 20°C
P.to Rugiada: 17°C
Umidita: 83%
Barometro: 1018 hPa
Visibilita: oltre 10 km
dettagli cloud: Sereno
LIPF 031755Z 25003KT CAVOK 20/17 Q1018
LIPL - Ghedi
Dati ricevuti: 04-10-2022 00:55
Sereno  
Sereno  
   Vento: Oriente 9.3 km/h
Vento: Oriente 9.3 km/h
Temperatura: 17°C
P.to Rugiada: 15°C
Umidita: 88%
Barometro: 1019 hPa
Visibilita: oltre 10 km
dettagli cloud: Sereno
LIPL 032255Z 08005KT CAVOK 17/15 Q1019
LIVC - Monte Cimone
Dati ricevuti: 04-10-2022 00:55
  
  
   Vento: Sud 9.3 km/h
Vento: Sud 9.3 km/h
Temperatura: 8°C
Temperatura Vento: 7°C
P.to Rugiada: -3°C
Umidita: 46%
Barometro: 1027 hPa
LIVC 032255Z AUTO 17005KT //// 08/M03 Q1027
LIMS - Piacenza
Dati ricevuti: 03-10-2022 19:55
DATI Obsoleti
Sereno  
Sereno  
   Vento: Sud 3.7 km/h
Vento: Sud 3.7 km/h
Temperatura: 19°C
P.to Rugiada: 19°C
Umidita: 100%
Barometro: 1017 hPa
Visibilita: oltre 10 km
dettagli cloud: Sereno
LIMS 031755Z 17002KT CAVOK 19/19 Q1017
LIMT - Passo della Cisa
Dati ricevuti: 23-09-2019 13:55
DATI Obsoleti
Nebbia  
Nebbia  
   Vento: calma
Vento: calma
Temperatura: 10°C
P.to Rugiada: 10°C
Umidita: 100%
Barometro: 1014 hPa
Visibilita: 0 km
dettagli cloud: Coperto
LIMT 231155Z 00000KT 0000 FG VV/// 10/10 Q1014 RMK MON INVIS VAL INVIS VIS MIN 0000
LIPU - Padova
Dati ricevuti: 02-10-2022 15:50
DATI Obsoleti
Poche nuvole  
Poche nuvole  
   Vento: SE 7.4 km/h
Vento: SE 7.4 km/h
Temperatura: 23°C
P.to Rugiada: 14°C
Umidita: 57%
Barometro: 1018 hPa
Nuvole: Poche nuvole
Visibilita: oltre 10 km
dettagli cloud: Poche nuvole 4000 ft
LIPU 021350Z 14004KT 070V190 9999 FEW040 23/14 Q1018

Script sviluppato da  Saratoga-weather.org Adattato per il modello da  Weerstation Leuven

Strumentazione usata:

Stazione meteo
Davis VP2

Programma gestore dati meteo
WVIEW

Server per i dati meteo
Pc-WDS5

Provider
Pc-WDS5

Davis VP2

WVIEW

Pc-WDS5

Pc-WDS5